Airfield :
LOGIN :

Register | Disclaimer

   EN    FR    IT 

 










Legend :    VFR   Marginal VFR   IFR   Intensive IFR   Very Intensive IFR
Visi :
Ceiling :
>= 8 km
>= 3000ft
5 to 8 km
1000 to 3000 ft
1500m to 5 km
500 to 1000 ft
800 to 1500m
200 to 500 ft
< 800m
< 200 ft
Symbols :   Thunderstorms  Fog  Heavy snow  Heavy precipitations  Wind > 20 kt
SIGMETs :     Misc.  Thunderstorms  Icing  Turbulence  Mountain Waves  Volcanic Ashes






- Airport Elevation : 157 ft
- IATA code : LIL


LFQQ - Lille Lesquin

CURRENT METAR :
  • 190800Z AUTO 05004KT 7000 NSC 17/13 Q1013 NOSIG

EXPIRED METARs :
  • 190730Z AUTO 05004KT 5000 BR NSC 16/13 Q1013 NOSIG
  • 190700Z AUTO 04005KT 4200 BR NSC 15/13 Q1013 BECMG 9999 NSW
  • 190630Z AUTO 05004KT 3400 BR NSC 14/13 Q1013 BECMG 9999 NSW
  • 190600Z AUTO 04004KT 3600 BR NSC 13/12 Q1012 NOSIG
  • 190530Z AUTO 04004KT 3400 BR NSC 14/12 Q1012 NOSIG

TAF TAF LFQQ
Valid from the 19 at 06:00 until the 20 at 12:00 UTC


190500Z 1906/2012 05005KT CAVOK
TEMPO 1906/1908 3000 BR
PROB40 1917/2002 3000 RA BKN040TCU
PROB30
TEMPO 2002/2006 3000 RA BKN005 BKN040TCU
ATIS : +33 3 20 16 19 54



MET'MAP, your aeronautical weather chart ! - Copyright ORBIFLY December 2007 - Disclaimer

ORBIFLY MET'MAP TEAM :

Programming & Development : Alexandra Zaïnal
Concept & original design : Baudouin d'Aumeries
Assistance for programming : Marc-Olivier Méhu
Technical & hardware support : Manuel Goepfert

Contact : metmap@orbifly.com




SOURCES & CREDITS :

   NOAA